Observation data for Plains on 01/18/2019      Previous  Date  Next       Current Mesonet Observations  Soil Data  Daily Summary Page  Observations in Plain Language
KPPS 180600Z 21008KT 06/M01 A3003 RMK A01 T00571010  RH  063%=      5-min Rain = 0
KPPS 180605Z 21009KT 06/M01 A3003 RMK A01 T00551010  RH  063%=      5-min Rain = 0
KPPS 180610Z 21008KT 05/M01 A3003 RMK A01 T00531010  RH  064%=      5-min Rain = 0
KPPS 180615Z 22008KT 05/M01 A3003 RMK A01 T00531010  RH  064%=      5-min Rain = 0
KPPS 180620Z 22008KT 05/M01 A3003 RMK A01 T00531009  RH  065%=      5-min Rain = 0
KPPS 180625Z 21009KT 05/M01 A3003 RMK A01 T00541008  RH  065%=      5-min Rain = 0
KPPS 180630Z 21009KT 06/M01 A3002 RMK A01 T00551007  RH  065%=      5-min Rain = 0
KPPS 180635Z 22009KT 06/M01 A3002 RMK A01 T00561007  RH  065%=      5-min Rain = 0
KPPS 180640Z 22009KT 06/M01 A3002 RMK A01 T00571007  RH  064%=      5-min Rain = 0
KPPS 180645Z 22009KT 06/M01 A3002 RMK A01 T00561007  RH  065%=      5-min Rain = 0
KPPS 180650Z 22009KT 06/M01 A3002 RMK A01 T00581006  RH  064%=      5-min Rain = 0
KPPS 180655Z 22010KT 06/M01 A3001 RMK A01 T00611005  RH  064%=      5-min Rain = 0
KPPS 180700Z 22010KT 07/M00 A3001 RMK A01 T00661004  RH  062%=      5-min Rain = 0
KPPS 180705Z 22011KT 07/M00 A3001 RMK A01 T00691003  RH  061%=      5-min Rain = 0
KPPS 180710Z 22011KT 07/M00 A3001 RMK A01 T00711003  RH  060%=      5-min Rain = 0
KPPS 180715Z 21010KT 07/M00 A3001 RMK A01 T00701003  RH  060%=      5-min Rain = 0
KPPS 180720Z 22009KT 07/M00 A30 RMK A01 T00701003  RH  061%=      5-min Rain = 0
KPPS 180725Z 22010KT 07/M00 A30 RMK A01 T00691003  RH  061%=      5-min Rain = 0
KPPS 180730Z 22009KT 07/M00 A30 RMK A01 T00691002  RH  061%=      5-min Rain = 0
KPPS 180735Z 22009KT 07/M00 A2999 RMK A01 T00711002  RH  061%=      5-min Rain = 0
KPPS 180740Z 22008KT 07/M00 A2999 RMK A01 T00711002  RH  061%=      5-min Rain = 0
KPPS 180745Z 23007KT 07/M00 A2999 RMK A01 T00671003  RH  062%=      5-min Rain = 0
KPPS 180750Z 25007KT 06/M01 A2999 RMK A01 T00611005  RH  064%=      5-min Rain = 0
KPPS 180755Z 25007KT 06/M01 A2999 RMK A01 T00561006  RH  065%=      5-min Rain = 0
KPPS 180800Z 25007KT 06/M01 A2998 RMK A01 T00561006  RH  065%=      5-min Rain = 0
KPPS 180805Z 25008KT 05/M01 A2998 RMK A01 T00541006  RH  066%=      5-min Rain = 0
KPPS 180810Z 26008KT 05/M01 A2998 RMK A01 T00541006  RH  066%=      5-min Rain = 0
KPPS 180815Z 24009KT 06/M01 A2998 RMK A01 T00581006  RH  064%=      5-min Rain = 0
KPPS 180820Z 23011KT 06/M01 A2997 RMK A01 T00641006  RH  061%=      5-min Rain = 0
KPPS 180825Z 24011KT 07/M01 A2997 RMK A01 T00661007  RH  060%=      5-min Rain = 0
KPPS 180830Z 23009KT 06/M01 A2997 RMK A01 T00631008  RH  061%=      5-min Rain = 0
KPPS 180835Z 23008KT 06/M01 A2997 RMK A01 T00581009  RH  063%=      5-min Rain = 0
KPPS 180840Z 22007KT 05/M01 A2997 RMK A01 T00541010  RH  064%=      5-min Rain = 0
KPPS 180845Z 22008KT 06/M01 A2997 RMK A01 T00551010  RH  063%=      5-min Rain = 0
KPPS 180850Z 22007KT 06/M01 A2997 RMK A01 T00571011  RH  063%=      5-min Rain = 0
KPPS 180855Z 22008KT 06/M01 A2997 RMK A01 T00561011  RH  063%=      5-min Rain = 0
KPPS 180900Z 22009KT 06/M01 A2997 RMK A01 T00601010  RH  061%=      5-min Rain = 0
KPPS 180905Z 22008KT 06/M01 A2996 RMK A01 T00611010  RH  061%=      5-min Rain = 0
KPPS 180910Z 24006KT 06/M01 A2996 RMK A01 T00561011  RH  062%=      5-min Rain = 0
KPPS 180915Z 27005KT 05/M01 A2996 RMK A01 T00511012  RH  065%=      5-min Rain = 0
KPPS 180920Z 27005KT 05/M01 A2996 RMK A01 T00471013  RH  066%=      5-min Rain = 0
KPPS 180925Z 28006KT 05/M01 A2996 RMK A01 T00461013  RH  066%=      5-min Rain = 0
KPPS 180930Z 26006KT 05/M01 A2995 RMK A01 T00481013  RH  065%=      5-min Rain = 0
KPPS 180935Z 24007KT 05/M01 A2995 RMK A01 T00521013  RH  064%=      5-min Rain = 0
KPPS 180940Z 24007KT 06/M01 A2995 RMK A01 T00551013  RH  062%=      5-min Rain = 0
KPPS 180945Z 24008KT 06/M01 A2995 RMK A01 T00571013  RH  062%=      5-min Rain = 0
KPPS 180950Z 24008KT 06/M01 A2995 RMK A01 T00581012  RH  061%=      5-min Rain = 0
KPPS 180955Z 24008KT 06/M01 A2994 RMK A01 T00561012  RH  062%=      5-min Rain = 0
KPPS 181000Z 23007KT 06/M01 A2994 RMK A01 T00581012  RH  061%=      5-min Rain = 0
KPPS 181005Z 24007KT 06/M01 A2994 RMK A01 T00591012  RH  061%=      5-min Rain = 0
KPPS 181010Z 23008KT 06/M01 A2993 RMK A01 T00591013  RH  061%=      5-min Rain = 0
KPPS 181015Z 23007KT 06/M01 A2993 RMK A01 T00581013  RH  061%=      5-min Rain = 0
KPPS 181020Z 25008KT 05/M02 A2993 RMK A01 T00511015  RH  063%=      5-min Rain = 0
KPPS 181025Z 24008KT 05/M01 A2993 RMK A01 T00491013  RH  065%=      5-min Rain = 0
KPPS 181030Z 24008KT 06/M01 A2993 RMK A01 T00581011  RH  061%=      5-min Rain = 0
KPPS 181035Z 24009KT 06/M01 A2993 RMK A01 T00581012  RH  061%=      5-min Rain = 0
KPPS 181040Z 24007KT 06/M01 A2992 RMK A01 T00581012  RH  062%=      5-min Rain = 0
KPPS 181045Z 23008KT 06/M01 A2991 RMK A01 T00551011  RH  063%=      5-min Rain = 0
KPPS 181050Z 23007KT 06/M01 A2991 RMK A01 T00581011  RH  062%=      5-min Rain = 0
KPPS 181055Z 23007KT 06/M01 A2991 RMK A01 T00551011  RH  063%=      5-min Rain = 0
KPPS 181100Z 23008KT 06/M01 A299 RMK A01 T00561011  RH  063%=      5-min Rain = 0
KPPS 181105Z 23007KT 06/M01 A299 RMK A01 T00551011  RH  063%=      5-min Rain = 0
KPPS 181110Z 25006KT 05/M01 A299 RMK A01 T00521011  RH  065%=      5-min Rain = 0
KPPS 181115Z 25006KT 05/M01 A299 RMK A01 T00471011  RH  067%=      5-min Rain = 0
KPPS 181120Z 24006KT 04/M01 A2989 RMK A01 T00431012  RH  068%=      5-min Rain = 0
KPPS 181125Z 24007KT 05/M01 A2989 RMK A01 T00481011  RH  067%=      5-min Rain = 0
KPPS 181130Z 24007KT 05/M01 A2989 RMK A01 T00481010  RH  066%=      5-min Rain = 0
KPPS 181135Z 24008KT 05/M01 A2989 RMK A01 T00511009  RH  066%=      5-min Rain = 0
KPPS 181140Z 23007KT 05/M01 A2988 RMK A01 T00541008  RH  065%=      5-min Rain = 0
KPPS 181145Z 23007KT 06/M01 A2988 RMK A01 T00551007  RH  065%=      5-min Rain = 0
KPPS 181150Z 22007KT 06/M01 A2987 RMK A01 T00561007  RH  064%=      5-min Rain = 0
KPPS 181155Z 23008KT 06/M01 A2987 RMK A01 T00581006  RH  064%=      5-min Rain = 0
KPPS 181200Z 22007KT 06/M01 A2986 RMK A01 T00601006  RH  063%=      5-min Rain = 0
KPPS 181205Z 21008KT 06/M00 A2986 RMK A01 T00621004  RH  063%=      5-min Rain = 0
KPPS 181210Z 23009KT 07/M00 A2987 RMK A01 T00691002  RH  061%=      5-min Rain = 0
KPPS 181215Z 22008KT 07/M00 A2987 RMK A01 T00741002  RH  060%=      5-min Rain = 0
KPPS 181220Z 23008KT 07/M00 A2987 RMK A01 T00741001  RH  060%=      5-min Rain = 0
KPPS 181225Z 23009KT 08/00 A2987 RMK A01 T00770001  RH  059%=      5-min Rain = 0
KPPS 181230Z 24008KT 08/00 A2987 RMK A01 T00780001  RH  059%=      5-min Rain = 0
KPPS 181235Z 25008KT 08/00 A2987 RMK A01 T00760002  RH  060%=      5-min Rain = 0
KPPS 181240Z 24007KT 07/00 A2987 RMK A01 T00740002  RH  061%=      5-min Rain = 0
KPPS 181245Z 23008KT 08/00 A2987 RMK A01 T00750003  RH  061%=      5-min Rain = 0
KPPS 181250Z 24008KT 08/00 A2987 RMK A01 T00760003  RH  061%=      5-min Rain = 0
KPPS 181255Z 23007KT 08/00 A2986 RMK A01 T00770004  RH  061%=      5-min Rain = 0
KPPS 181300Z 23007KT 08/00 A2986 RMK A01 T00780003  RH  060%=      5-min Rain = 0
KPPS 181305Z 23007KT 08/00 A2986 RMK A01 T00780004  RH  060%=      5-min Rain = 0
KPPS 181310Z 24007KT 08/00 A2986 RMK A01 T00760004  RH  061%=      5-min Rain = 0
KPPS 181315Z 25006KT 07/00 A2986 RMK A01 T00710003  RH  062%=      5-min Rain = 0
KPPS 181320Z 25007KT 07/00 A2986 RMK A01 T00660002  RH  064%=      5-min Rain = 0
KPPS 181325Z 25007KT 07/00 A2986 RMK A01 T00650002  RH  065%=      5-min Rain = 0
KPPS 181330Z 26008KT 06/00 A2986 RMK A01 T00640001  RH  065%=      5-min Rain = 0
KPPS 181335Z 26007KT 06/00 A2986 RMK A01 T006100-0  RH  065%=      5-min Rain = 0
KPPS 181340Z 26007KT 06/M00 A2986 RMK A01 T00601001  RH  066%=      5-min Rain = 0
KPPS 181345Z 25006KT 06/00 A2986 RMK A01 T00620000  RH  065%=      5-min Rain = 0
KPPS 181350Z 23007KT 07/00 A2985 RMK A01 T00660002  RH  064%=      5-min Rain = 0
KPPS 181355Z 22007KT 07/00 A2985 RMK A01 T00730003  RH  062%=      5-min Rain = 0
KPPS 181400Z 22008KT 08/00 A2985 RMK A01 T00770003  RH  061%=      5-min Rain = 0
KPPS 181405Z 23007KT 08/00 A2985 RMK A01 T00800003  RH  059%=      5-min Rain = 0
KPPS 181410Z 23005KT 08/00 A2985 RMK A01 T00760002  RH  060%=      5-min Rain = 0
KPPS 181415Z 24006KT 07/00 A2985 RMK A01 T00710001  RH  062%=      5-min Rain = 0
KPPS 181420Z 25006KT 07/00 A2985 RMK A01 T00710002  RH  062%=      5-min Rain = 0
KPPS 181425Z 26007KT 07/00 A2985 RMK A01 T00680001  RH  063%=      5-min Rain = 0
KPPS 181430Z 26007KT 07/00 A2985 RMK A01 T00730002  RH  062%=      5-min Rain = 0
KPPS 181435Z 26008KT 08/00 A2985 RMK A01 T00780003  RH  060%=      5-min Rain = 0
KPPS 181440Z 25009G14KT 08/00 A2985 RMK A01 T00820004  RH  059%=      5-min Rain = 0
KPPS 181445Z 24014KT 10/01 A2985 RMK A01 T00960005  RH  054%=      5-min Rain = 0
KPPS 181450Z 23017G22KT 11/00 A2984 RMK A01 T01080002  RH  049%=      5-min Rain = 0
KPPS 181455Z 23017G22KT 11/00 A2984 RMK A01 T01130001  RH  047%=      5-min Rain = 0
KPPS 181500Z 23019G24KT 12/00 A2984 RMK A01 T01160001  RH  045%=      5-min Rain = 0
KPPS 181505Z 23018G24KT 12/00 A2985 RMK A01 T01200001  RH  045%=      5-min Rain = 0
KPPS 181510Z 24019G29KT 12/00 A2985 RMK A01 T01240001  RH  043%=      5-min Rain = 0
KPPS 181515Z 24020G27KT 13/00 A2984 RMK A01 T01270002  RH  043%=      5-min Rain = 0
KPPS 181520Z 24021G27KT 13/00 A2984 RMK A01 T01300002  RH  042%=      5-min Rain = 0
KPPS 181525Z 24021G27KT 13/00 A2985 RMK A01 T01300002  RH  042%=      5-min Rain = 0
KPPS 181530Z 24019KT 13/00 A2985 RMK A01 T01310003  RH  042%=      5-min Rain = 0
KPPS 181535Z 24019G25KT 13/00 A2985 RMK A01 T01320004  RH  042%=      5-min Rain = 0
KPPS 181540Z 24019G25KT 14/00 A2985 RMK A01 T01350004  RH  041%=      5-min Rain = 0
KPPS 181545Z 24019G25KT 14/00 A2985 RMK A01 T01380004  RH  040%=      5-min Rain = 0
KPPS 181550Z 24019G25KT 14/00 A2985 RMK A01 T01410004  RH  040%=      5-min Rain = 0
KPPS 181555Z 24018KT 14/00 A2985 RMK A01 T01420004  RH  039%=      5-min Rain = 0
KPPS 181600Z 24018G24KT 15/01 A2985 RMK A01 T01450005  RH  039%=      5-min Rain = 0
KPPS 181605Z 24020G25KT 15/01 A2985 RMK A01 T01490005  RH  038%=      5-min Rain = 0
KPPS 181610Z 25022G28KT 15/01 A2985 RMK A01 T01540005  RH  037%=      5-min Rain = 0
KPPS 181615Z 25023G29KT 16/00 A2985 RMK A01 T01550002  RH  036%=      5-min Rain = 0
KPPS 181620Z 25025G30KT 15/00 A2985 RMK A01 T01540001  RH  036%=      5-min Rain = 0
KPPS 181625Z 25023G28KT 16/00 A2985 RMK A01 T01570003  RH  036%=      5-min Rain = 0
KPPS 181630Z 25024KT 16/00 A2984 RMK A01 T01580003  RH  035%=      5-min Rain = 0
KPPS 181635Z 25023G28KT 16/00 A2984 RMK A01 T01590003  RH  035%=      5-min Rain = 0
KPPS 181640Z 25023KT 16/00 A2984 RMK A01 T01580004  RH  035%=      5-min Rain = 0
KPPS 181645Z 25022KT 16/01 A2984 RMK A01 T01620007  RH  035%=      5-min Rain = 0
KPPS 181650Z 25023G28KT 17/01 A2984 RMK A01 T01650006  RH  035%=      5-min Rain = 0
KPPS 181655Z 25022G27KT 17/01 A2984 RMK A01 T01670006  RH  034%=      5-min Rain = 0
KPPS 181700Z 26023G32KT 17/00 A2984 RMK A01 T01690004  RH  033%=      5-min Rain = 0
KPPS 181705Z 26024G30KT 17/00 A2983 RMK A01 T01660001  RH  033%=      5-min Rain = 0
KPPS 181710Z 26020G25KT 17/01 A2983 RMK A01 T01710006  RH  033%=      5-min Rain = 0
KPPS 181715Z 26024G31KT 17/00 A2983 RMK A01 T01730003  RH  032%=      5-min Rain = 0
KPPS 181720Z 27023G30KT 17/00 A2983 RMK A01 T01730003  RH  032%=      5-min Rain = 0
KPPS 181725Z 26024G29KT 18/00 A2983 RMK A01 T01770004  RH  031%=      5-min Rain = 0
KPPS 181730Z 26024G31KT 18/00 A2983 RMK A01 T01800004  RH  031%=      5-min Rain = 0
KPPS 181735Z 27025G30KT 18/00 A2983 RMK A01 T01770003  RH  031%=      5-min Rain = 0
KPPS 181740Z 27024G31KT 18/01 A2983 RMK A01 T01820005  RH  031%=      5-min Rain = 0
KPPS 181745Z 27024G32KT 18/00 A2982 RMK A01 T01760003  RH  031%=      5-min Rain = 0
KPPS 181750Z 27024G30KT 17/00 A2982 RMK A01 T01700003  RH  033%=      5-min Rain = 0
KPPS 181755Z 27023G29KT 17/00 A2982 RMK A01 T01680003  RH  033%=      5-min Rain = 0
KPPS 181800Z 27023G29KT 17/01 A2982 RMK A01 T01700005  RH  033%=      5-min Rain = 0
KPPS 181805Z 27024G29KT 17/01 A2982 RMK A01 T01680005  RH  034%=      5-min Rain = 0
KPPS 181810Z 27025G33KT 17/01 A2982 RMK A01 T01690006  RH  033%=      5-min Rain = 0
KPPS 181815Z 27026G33KT 17/01 A2982 RMK A01 T01730005  RH  033%=      5-min Rain = 0
KPPS 181820Z 27027G36KT 17/01 A2982 RMK A01 T01740005  RH  032%=      5-min Rain = 0
KPPS 181825Z 26026G32KT 17/01 A2981 RMK A01 T01740005  RH  032%=      5-min Rain = 0
KPPS 181830Z 27024G30KT 17/01 A2981 RMK A01 T01740005  RH  032%=      5-min Rain = 0
KPPS 181835Z 27026G34KT 17/00 A298 RMK A01 T01740004  RH  032%=      5-min Rain = 0
KPPS 181840Z 28027G35KT 17/00 A298 RMK A01 T01730004  RH  032%=      5-min Rain = 0
KPPS 181845Z 27026G34KT 18/00 A298 RMK A01 T01760004  RH  032%=      5-min Rain = 0
KPPS 181850Z 27021G27KT 18/01 A298 RMK A01 T01830009  RH  031%=      5-min Rain = 0
KPPS 181855Z 27023G31KT 18/01 A2979 RMK A01 T01770006  RH  032%=      5-min Rain = 0
KPPS 181900Z 26024G31KT 17/01 A2979 RMK A01 T01680010  RH  035%=      5-min Rain = 0
KPPS 181905Z 27023G30KT 17/01 A2978 RMK A01 T01720009  RH  034%=      5-min Rain = 0
KPPS 181910Z 27025G33KT 17/01 A2978 RMK A01 T01740007  RH  033%=      5-min Rain = 0
KPPS 181915Z 27027G33KT 17/00 A2978 RMK A01 T01720001  RH  032%=      5-min Rain = 0
KPPS 181920Z 28026G33KT 17/00 A2978 RMK A01 T01700002  RH  032%=      5-min Rain = 0
KPPS 181925Z 28026G33KT 17/00 A2978 RMK A01 T01660001  RH  033%=      5-min Rain = 0
KPPS 181930Z 28026G39KT 16/00 A2977 RMK A01 T01620001  RH  034%=      5-min Rain = 0
KPPS 181935Z 29025G34KT 16/M00 A2977 RMK A01 T01611002  RH  033%=      5-min Rain = 0
KPPS 181940Z 29028G36KT 16/M00 A2976 RMK A01 T01621003  RH  033%=      5-min Rain = 0
KPPS 181945Z 29028G39KT 16/01 A2976 RMK A01 T01620005  RH  035%=      5-min Rain = 0
KPPS 181950Z 29025G33KT 16/01 A2976 RMK A01 T01630010  RH  036%=      5-min Rain = 0
KPPS 181955Z 29024G31KT 16/01 A2975 RMK A01 T01640009  RH  036%=      5-min Rain = 0
KPPS 182000Z 29022G28KT 16/02 A2975 RMK A01 T01610017  RH  038%=      5-min Rain = 0
KPPS 182005Z 28026G31KT 16/02 A2975 RMK A01 T01600017  RH  038%=      5-min Rain = 0
KPPS 182010Z 28022G28KT 16/01 A2975 RMK A01 T01560013  RH  038%=      5-min Rain = 0
KPPS 182015Z 29026G36KT 16/01 A2975 RMK A01 T01550008  RH  037%=      5-min Rain = 0
KPPS 182020Z 29026G33KT 15/01 A2975 RMK A01 T01540008  RH  038%=      5-min Rain = 0
KPPS 182025Z 29026G33KT 15/01 A2975 RMK A01 T01520008  RH  038%=      5-min Rain = 0
KPPS 182030Z 29025G33KT 15/01 A2975 RMK A01 T01530010  RH  038%=      5-min Rain = 0
KPPS 182035Z 29026G35KT 15/00 A2975 RMK A01 T01510002  RH  037%=      5-min Rain = 0
KPPS 182040Z 29030G40KT 16/00 A2975 RMK A01 T01560004  RH  036%=      5-min Rain = 0
KPPS 182045Z 29028G36KT 16/01 A2975 RMK A01 T01550008  RH  037%=      5-min Rain = 0
KPPS 182050Z 29029G37KT 16/01 A2975 RMK A01 T01570009  RH  037%=      5-min Rain = 0
KPPS 182055Z 29029G39KT 16/01 A2975 RMK A01 T01560006  RH  037%=      5-min Rain = 0
KPPS 182100Z 29029G36KT 15/01 A2975 RMK A01 T01500005  RH  038%=      5-min Rain = 0
KPPS 182105Z 29029G36KT 14/01 A2975 RMK A01 T01430006  RH  040%=      5-min Rain = 0
KPPS 182110Z 29028G35KT 14/01 A2975 RMK A01 T01440008  RH  040%=      5-min Rain = 0
KPPS 182115Z 29025G38KT 15/01 A2975 RMK A01 T01460008  RH  040%=      5-min Rain = 0
KPPS 182120Z 29028G35KT 14/01 A2975 RMK A01 T01440005  RH  039%=      5-min Rain = 0
KPPS 182125Z 28027G36KT 14/M00 A2975 RMK A01 T01421003  RH  037%=      5-min Rain = 0
KPPS 182130Z 28024G31KT 14/M00 A2975 RMK A01 T01431004  RH  037%=      5-min Rain = 0
KPPS 182135Z 29030G40KT 14/M01 A2975 RMK A01 T01431006  RH  036%=      5-min Rain = 0
KPPS 182140Z 29029G35KT 14/M01 A2975 RMK A01 T01421008  RH  036%=      5-min Rain = 0
KPPS 182145Z 28026G34KT 14/M01 A2976 RMK A01 T01411011  RH  036%=      5-min Rain = 0
KPPS 182150Z 28030G44KT 14/M02 A2976 RMK A01 T01391020  RH  034%=      5-min Rain = 0
KPPS 182155Z 28029G36KT 14/M02 A2976 RMK A01 T01351022  RH  034%=      5-min Rain = 0
KPPS 182200Z 28030G42KT 13/M03 A2976 RMK A01 T01341025  RH  033%=      5-min Rain = 0
KPPS 182205Z 28030G41KT 13/M02 A2976 RMK A01 T01311022  RH  035%=      5-min Rain = 0
KPPS 182210Z 28023G30KT 13/M02 A2975 RMK A01 T01321023  RH  034%=      5-min Rain = 0
KPPS 182215Z 28021G30KT 14/M03 A2974 RMK A01 T01371030  RH  031%=      5-min Rain = 0
KPPS 182220Z 28024G31KT 14/M04 A2974 RMK A01 T01391035  RH  030%=      5-min Rain = 0
KPPS 182225Z 28024G33KT 13/M04 A2974 RMK A01 T01301039  RH  031%=      5-min Rain = 0
KPPS 182230Z 28021G28KT 13/M04 A2974 RMK A01 T01271039  RH  031%=      5-min Rain = 0
KPPS 182235Z 27023G28KT 13/M04 A2974 RMK A01 T01261038  RH  032%=      5-min Rain = 0
KPPS 182240Z 27021G28KT 13/M04 A2974 RMK A01 T01261040  RH  031%=      5-min Rain = 0
KPPS 182245Z 27021G26KT 13/M04 A2974 RMK A01 T01271042  RH  031%=      5-min Rain = 0
KPPS 182250Z 26020G25KT 13/M04 A2974 RMK A01 T01251043  RH  031%=      5-min Rain = 0
KPPS 182255Z 26021G26KT 13/M05 A2975 RMK A01 T01271045  RH  030%=      5-min Rain = 0
KPPS 182300Z 26022G29KT 13/M05 A2975 RMK A01 T01331046  RH  029%=      5-min Rain = 0
KPPS 182305Z 26024G31KT 13/M05 A2975 RMK A01 T01331047  RH  028%=      5-min Rain = 0
KPPS 182310Z 27024G30KT 13/M05 A2975 RMK A01 T01321051  RH  028%=      5-min Rain = 0
KPPS 182315Z 27022G31KT 13/M06 A2975 RMK A01 T01291057  RH  027%=      5-min Rain = 0
KPPS 182320Z 27023G33KT 13/M06 A2975 RMK A01 T01281064  RH  026%=      5-min Rain = 0
KPPS 182325Z 28027G32KT 13/M06 A2975 RMK A01 T01261062  RH  026%=      5-min Rain = 0
KPPS 182330Z 28023G31KT 12/M06 A2976 RMK A01 T01221056  RH  028%=      5-min Rain = 0
KPPS 182335Z 27021G27KT 12/M06 A2976 RMK A01 T01191056  RH  029%=      5-min Rain = 0
KPPS 182340Z 27021G26KT 12/M05 A2976 RMK A01 T01191054  RH  029%=      5-min Rain = 0
KPPS 182345Z 27021G28KT 12/M05 A2976 RMK A01 T01181052  RH  030%=      5-min Rain = 0
KPPS 182350Z 27021G26KT 12/M05 A2977 RMK A01 T01181049  RH  031%=      5-min Rain = 0
KPPS 182355Z 28019G24KT 12/M05 A2977 RMK A01 T01161048  RH  031%=      5-min Rain = 0
KPPS 190000Z 28019G24KT 11/M05 A2977 RMK A01 T01141047  RH  032%=      5-min Rain = 0
KPPS 190005Z 28018G25KT 11/M05 A2977 RMK A01 T01131047  RH  032%=      5-min Rain = 0
KPPS 190010Z 28019G27KT 11/M06 A2977 RMK A01 T01141055  RH  030%=      5-min Rain = 0
KPPS 190015Z 28022G29KT 12/M07 A2977 RMK A01 T01161071  RH  026%=      5-min Rain = 0
KPPS 190020Z 28024G31KT 12/M08 A2978 RMK A01 T01191077  RH  025%=      5-min Rain = 0
KPPS 190025Z 28021G29KT 12/M08 A2978 RMK A01 T01171076  RH  025%=      5-min Rain = 0
KPPS 190030Z 28021G28KT 11/M07 A2979 RMK A01 T01141069  RH  027%=      5-min Rain = 0
KPPS 190035Z 28024G29KT 11/M07 A2979 RMK A01 T01141068  RH  027%=      5-min Rain = 0
KPPS 190040Z 29027G34KT 12/M08 A2979 RMK A01 T01161076  RH  025%=      5-min Rain = 0
KPPS 190045Z 29027G37KT 12/M08 A2979 RMK A01 T01181083  RH  024%=      5-min Rain = 0
KPPS 190050Z 29026G32KT 12/M08 A298 RMK A01 T01171084  RH  024%=      5-min Rain = 0
KPPS 190055Z 30023G30KT 12/M09 A2981 RMK A01 T01171085  RH  023%=      5-min Rain = 0
KPPS 190100Z 31020G25KT 12/M09 A2982 RMK A01 T01151086  RH  024%=      5-min Rain = 0
KPPS 190105Z 31020G28KT 11/M09 A2982 RMK A01 T01121091  RH  023%=      5-min Rain = 0
KPPS 190110Z 31022G31KT 11/M09 A2983 RMK A01 T01111092  RH  023%=      5-min Rain = 0
KPPS 190115Z 32026G35KT 11/M06 A2984 RMK A01 T01091064  RH  030%=      5-min Rain = 0
KPPS 190120Z 33023G30KT 10/M01 A2984 RMK A01 T00971008  RH  048%=      5-min Rain = 0
KPPS 190125Z 33025G32KT 09/M00 A2985 RMK A01 T00931002  RH  052%=      5-min Rain = 0
KPPS 190130Z 33024G30KT 09/00 A2986 RMK A01 T00900000  RH  054%=      5-min Rain = 0
KPPS 190135Z 33022G28KT 09/00 A2986 RMK A01 T00870001  RH  055%=      5-min Rain = 0
KPPS 190140Z 33021G27KT 08/00 A2987 RMK A01 T00840001  RH  057%=      5-min Rain = 0
KPPS 190145Z 32018G24KT 08/00 A2987 RMK A01 T00810002  RH  058%=      5-min Rain = 0
KPPS 190150Z 32020G25KT 08/00 A2988 RMK A01 T00800002  RH  058%=      5-min Rain = 0
KPPS 190155Z 32020G26KT 08/00 A2988 RMK A01 T00790002  RH  059%=      5-min Rain = 0
KPPS 190200Z 32022G29KT 08/00 A2989 RMK A01 T00790004  RH  060%=      5-min Rain = 0
KPPS 190205Z 32025G32KT 08/01 A2989 RMK A01 T00780005  RH  061%=      5-min Rain = 0
KPPS 190210Z 32023G30KT 08/01 A2989 RMK A01 T00760007  RH  062%=      5-min Rain = 0
KPPS 190215Z 33023G32KT 07/01 A299 RMK A01 T00740008  RH  064%=      5-min Rain = 0
KPPS 190220Z 33023G33KT 07/01 A2991 RMK A01 T00720010  RH  066%=      5-min Rain = 0
KPPS 190225Z 33025G35KT 07/01 A2991 RMK A01 T00700010  RH  066%=      5-min Rain = 0
KPPS 190230Z 32030G40KT 07/01 A2992 RMK A01 T00710009  RH  065%=      5-min Rain = 0
KPPS 190235Z 33033G43KT 07/01 A2993 RMK A01 T00690011  RH  067%=      5-min Rain = 0
KPPS 190240Z 33032G42KT 06/02 A2994 RMK A01 T00560015  RH  076%=      5-min Rain = 0
KPPS 190245Z 33032G42KT 04/01 A2995 RMK A01 T00410014  RH  084%=      5-min Rain = 0
KPPS 190250Z 33029G40KT 04/01 A2995 RMK A01 T00350013  RH  087%=      5-min Rain = 0
KPPS 190255Z 33028G35KT 04/01 A2996 RMK A01 T00350014  RH  087%=      5-min Rain = 0
KPPS 190300Z 33026G34KT 04/02 A2996 RMK A01 T00370016  RH  088%=      5-min Rain = 0
KPPS 190305Z 34030G37KT 04/02 A2995 RMK A01 T00400018  RH  087%=      5-min Rain = 0
KPPS 190310Z 34030G39KT 04/02 A2995 RMK A01 T00420017  RH  085%=      5-min Rain = 0
KPPS 190315Z 33029G37KT 04/02 A2996 RMK A01 T00420016  RH  085%=      5-min Rain = 0
KPPS 190320Z 33027G34KT 04/02 A2997 RMK A01 T00410017  RH  085%=      5-min Rain = 0
KPPS 190325Z 33024G31KT 04/02 A2998 RMK A01 T00410018  RH  086%=      5-min Rain = 0
KPPS 190330Z 32022G29KT 04/02 A2998 RMK A01 T00400019  RH  087%=      5-min Rain = 0
KPPS 190335Z 33025G30KT 04/02 A2999 RMK A01 T00410018  RH  086%=      5-min Rain = 0
KPPS 190340Z 32024G33KT 04/02 A2999 RMK A01 T00420018  RH  085%=      5-min Rain = 0
KPPS 190345Z 32023G31KT 04/02 A30 RMK A01 T00420018  RH  085%=      5-min Rain = 0
KPPS 190350Z 32023G29KT 04/02 A30 RMK A01 T00420017  RH  085%=      5-min Rain = 0
KPPS 190355Z 32024G33KT 04/02 A3001 RMK A01 T00430017  RH  085%=      5-min Rain = 0
KPPS 190400Z 33027G36KT 04/02 A3001 RMK A01 T00430015  RH  083%=      5-min Rain = 0
KPPS 190405Z 33024G33KT 04/02 A3002 RMK A01 T00410016  RH  085%=      5-min Rain = 0
KPPS 190410Z 33024G31KT 04/02 A3002 RMK A01 T00400016  RH  086%=      5-min Rain = 0
KPPS 190415Z 33024G33KT 04/02 A3003 RMK A01 T00390016  RH  086%=      5-min Rain = 0
KPPS 190420Z 34028G37KT 04/01 A3003 RMK A01 T00390012  RH  084%=      5-min Rain = 0
KPPS 190425Z 34024G34KT 04/01 A3004 RMK A01 T00380012  RH  084%=      5-min Rain = 0
KPPS 190430Z 34025G32KT 04/01 A3004 RMK A01 T00360011  RH  085%=      5-min Rain = 0
KPPS 190435Z 35025G32KT 03/01 A3005 RMK A01 T00330011  RH  087%=      5-min Rain = 0
KPPS 190440Z 36024G31KT 03/01 A3005 RMK A01 T00270006  RH  088%=      5-min Rain = 0
KPPS 190445Z 36027G35KT 02/M00 A3006 RMK A01 T00191001  RH  088%=      5-min Rain = 0
KPPS 190450Z 35026G32KT 02/M00 A3006 RMK A01 T00161003  RH  089%=      5-min Rain = 0
KPPS 190455Z 35023G30KT 02/M00 A3006 RMK A01 T00161003  RH  088%=      5-min Rain = 0
KPPS 190500Z 35024G32KT 02/M01 A3006 RMK A01 T00171005  RH  086%=      5-min Rain = 0
KPPS 190505Z 35022G28KT 02/M00 A3007 RMK A01 T00181004  RH  086%=      5-min Rain = 0
KPPS 190510Z 34021G28KT 02/M00 A3007 RMK A01 T00181003  RH  087%=      5-min Rain = 0
KPPS 190515Z 34020G28KT 02/M00 A3008 RMK A01 T00181003  RH  087%=      5-min Rain = 0
KPPS 190520Z 34018G23KT 02/M00 A3008 RMK A01 T00171002  RH  088%=      5-min Rain = 0
KPPS 190525Z 33018G23KT 02/M00 A3008 RMK A01 T00181002  RH  088%=      5-min Rain = 0
KPPS 190530Z 33020KT 02/00 A3008 RMK A01 T002000-0  RH  087%=      5-min Rain = 0
KPPS 190535Z 33019G24KT 02/00 A3009 RMK A01 T00220001  RH  087%=      5-min Rain = 0
KPPS 190540Z 33022G29KT 02/00 A3009 RMK A01 T00230002  RH  087%=      5-min Rain = 0
KPPS 190545Z 33022G28KT 02/00 A3009 RMK A01 T00230001  RH  086%=      5-min Rain = 0
KPPS 190550Z 33020G26KT 02/00 A3009 RMK A01 T002200-0  RH  086%=      5-min Rain = 0
KPPS 190555Z 33020G27KT 02/00 A3009 RMK A01 T002200-0  RH  086%=      5-min Rain = 0

Page generated in 0.0092 seconds.